Time;durP1;ratioP1;P1;durP2;ratioP2;P2;SDS_P1;SDS_P2;PMS_P1;PMS_P2;Temp;Humidity;BMP_temperature;BMP_pressure;BME280_temperature;BME280_humidity;BME280_pressure;Samples;Min_cycle;Max_cycle;Signal;HPM_P1;HPM_P2
2023/07/28 00:02:07;;;;;;;9.10;5.88;;;18.50;94.20;;;;;;4960502;28;20746;-74
2023/07/28 00:04:35;;;;;;;9.75;5.40;;;18.50;94.20;;;;;;4967389;28;20110;-73
2023/07/28 00:07:02;;;;;;;9.68;5.85;;;18.60;94.20;;;;;;4962886;28;20031;-72
2023/07/28 00:09:27;;;;;;;8.20;5.18;;;18.60;94.10;;;;;;4967637;28;20468;-74
2023/07/28 00:11:53;;;;;;;8.18;5.60;;;18.60;94.10;;;;;;4970069;28;20074;-76
2023/07/28 00:14:19;;;;;;;9.85;5.95;;;18.50;94.10;;;;;;4972357;28;20027;-74
2023/07/28 00:16:44;;;;;;;8.98;5.00;;;18.60;94.10;;;;;;4977308;28;20054;-74
2023/07/28 00:19:10;;;;;;;6.57;4.80;;;18.50;94.10;;;;;;4982099;28;20041;-75
2023/07/28 00:21:36;;;;;;;7.60;4.32;;;18.50;94.10;;;;;;4974783;28;20070;-74
2023/07/28 00:24:01;;;;;;;8.02;4.22;;;18.50;94.20;;;;;;4969181;28;20035;-74
2023/07/28 00:26:27;;;;;;;7.53;4.18;;;18.50;94.00;;;;;;4966573;28;20053;-75
2023/07/28 00:28:53;;;;;;;5.97;3.92;;;18.50;94.00;;;;;;4967841;28;20150;-73
2023/07/28 00:31:18;;;;;;;7.90;4.03;;;18.50;94.10;;;;;;4966304;28;20031;-73
2023/07/28 00:33:44;;;;;;;7.68;4.78;;;18.50;94.00;;;;;;4967151;28;20023;-73
2023/07/28 00:36:10;;;;;;;7.25;3.83;;;18.50;94.00;;;;;;4966972;28;20479;-73
2023/07/28 00:38:36;;;;;;;7.88;3.90;;;18.50;94.00;;;;;;4967023;28;20038;-74
2023/07/28 00:41:01;;;;;;;6.05;3.40;;;18.50;93.90;;;;;;4966405;28;20522;-74
2023/07/28 00:43:27;;;;;;;7.10;3.70;;;18.50;93.90;;;;;;4966946;28;20070;-77
2023/07/28 00:45:53;;;;;;;8.23;3.80;;;18.60;94.00;;;;;;4965567;28;20058;-74
2023/07/28 00:48:20;;;;;;;6.18;3.42;;;18.60;93.90;;;;;;4967088;28;20054;-73
2023/07/28 00:50:48;;;;;;;7.43;3.38;;;18.60;93.80;;;;;;4960372;28;20027;-74
2023/07/28 00:53:14;;;;;;;5.68;3.03;;;18.60;93.80;;;;;;4951913;28;20026;-73
2023/07/28 00:55:41;;;;;;;6.75;3.17;;;18.60;93.80;;;;;;4953343;28;20035;-74
2023/07/28 00:58:07;;;;;;;6.10;3.05;;;18.60;93.70;;;;;;4962372;28;20026;-73
2023/07/28 01:00:33;;;;;;;6.47;3.35;;;18.60;93.70;;;;;;4961760;28;20050;-73
2023/07/28 01:02:58;;;;;;;5.97;3.03;;;18.50;93.70;;;;;;4952216;28;20043;-73
2023/07/28 01:05:31;;;;;;;6.35;3.20;;;18.60;93.60;;;;;;4956231;28;20162;-74
2023/07/28 01:08:15;;;;;;;6.25;3.10;;;18.60;93.70;;;;;;4960845;28;20622;-74
2023/07/28 01:10:42;;;;;;;6.57;3.30;;;18.60;93.70;;;;;;4944838;28;20484;-76
2023/07/28 01:13:08;;;;;;;6.68;3.17;;;18.60;93.70;;;;;;4947903;28;20122;-74
2023/07/28 01:15:33;;;;;;;6.47;3.35;;;18.60;93.60;;;;;;4958921;28;20113;-73
2023/07/28 01:17:59;;;;;;;9.32;3.13;;;18.60;93.60;;;;;;4982032;28;20045;-73
2023/07/28 01:20:29;;;;;;;6.43;2.95;;;18.60;93.50;;;;;;4966560;28;20034;-72
2023/07/28 01:23:20;;;;;;;6.75;2.97;;;18.60;93.60;;;;;;4965473;28;20099;-74
2023/07/28 01:26:33;;;;;;;6.85;3.30;;;18.60;93.60;;;;;;4966120;28;20034;-73
2023/07/28 01:29:00;;;;;;;6.50;2.97;;;18.60;93.60;;;;;;4961390;28;20026;-73
2023/07/28 01:31:26;;;;;;;6.07;3.00;;;18.60;93.60;;;;;;4962165;28;20038;-73
2023/07/28 01:33:51;;;;;;;6.10;3.50;;;18.60;93.50;;;;;;4967574;28;20467;-73
2023/07/28 01:36:17;;;;;;;7.50;3.47;;;18.60;93.50;;;;;;4967987;28;20051;-73
2023/07/28 01:38:43;;;;;;;7.28;3.40;;;18.60;93.50;;;;;;4965569;28;20034;-74
2023/07/28 01:41:08;;;;;;;7.22;3.50;;;18.60;93.50;;;;;;4955299;28;20055;-75
2023/07/28 01:43:34;;;;;;;7.25;3.53;;;18.60;93.50;;;;;;4957343;28;20018;-73
2023/07/28 01:46:00;;;;;;;5.88;3.50;;;18.60;93.50;;;;;;4943267;28;20047;-74
2023/07/28 01:48:26;;;;;;;6.13;3.10;;;18.60;93.50;;;;;;4950676;28;20042;-73
2023/07/28 01:50:52;;;;;;;7.28;3.58;;;18.60;93.50;;;;;;4953214;28;20042;-73
2023/07/28 01:53:18;;;;;;;8.20;3.90;;;18.70;93.40;;;;;;4965364;28;20143;-73
2023/07/28 01:55:43;;;;;;;5.47;3.60;;;18.70;93.50;;;;;;4963695;28;20039;-74
2023/07/28 01:58:09;;;;;;;7.35;3.40;;;18.70;93.50;;;;;;4963644;28;20050;-76
2023/07/28 02:00:35;;;;;;;6.82;3.42;;;18.70;93.40;;;;;;4956929;28;20101;-74
2023/07/28 02:03:03;;;;;;;6.13;3.20;;;18.70;93.40;;;;;;4960102;28;20027;-73
2023/07/28 02:05:30;;;;;;;6.55;3.00;;;18.60;93.40;;;;;;4963475;28;20430;-73
2023/07/28 02:07:56;;;;;;;5.20;2.88;;;18.60;93.50;;;;;;4967754;28;20151;-73
2023/07/28 02:10:27;;;;;;;4.90;2.80;;;18.70;93.40;;;;;;4965848;28;20675;-74
2023/07/28 02:12:52;;;;;;;7.18;3.10;;;18.60;93.40;;;;;;4953558;28;20069;-73
2023/07/28 02:15:18;;;;;;;5.10;2.95;;;18.60;93.50;;;;;;4952384;28;20039;-73
2023/07/28 02:17:44;;;;;;;5.18;2.85;;;18.70;93.50;;;;;;4967036;28;20039;-73
2023/07/28 02:20:15;;;;;;;7.20;3.10;;;18.60;93.50;;;;;;4968044;28;20437;-74
2023/07/28 02:22:41;;;;;;;5.45;3.17;;;18.60;93.50;;;;;;4969894;28;20436;-73
2023/07/28 02:25:07;;;;;;;6.15;2.85;;;18.60;93.50;;;;;;4967947;28;20027;-75
2023/07/28 02:27:33;;;;;;;5.65;2.80;;;18.60;93.50;;;;;;4963937;28;20117;-71
2023/07/28 02:29:58;;;;;;;6.13;3.05;;;18.60;93.30;;;;;;4958941;28;20732;-74
2023/07/28 02:32:24;;;;;;;4.78;2.83;;;18.60;93.40;;;;;;4964035;28;20020;-76
2023/07/28 02:34:50;;;;;;;5.97;2.80;;;18.60;93.40;;;;;;4968542;28;20027;-76
2023/07/28 02:37:16;;;;;;;4.28;2.40;;;18.60;93.30;;;;;;4969210;28;20046;-73
2023/07/28 02:39:42;;;;;;;6.30;2.60;;;18.70;93.30;;;;;;4965821;28;20031;-73
2023/07/28 02:42:07;;;;;;;3.58;2.40;;;18.60;93.20;;;;;;4966666;28;20102;-74
2023/07/28 02:44:33;;;;;;;4.05;2.10;;;18.60;93.20;;;;;;4969404;28;20732;-74
2023/07/28 02:46:59;;;;;;;3.22;2.00;;;18.60;93.20;;;;;;4968611;28;20774;-75
2023/07/28 02:49:24;;;;;;;3.28;2.00;;;18.70;93.30;;;;;;4967998;28;20027;-73
2023/07/28 02:51:50;;;;;;;4.38;2.17;;;18.70;93.30;;;;;;4963523;28;20030;-74
2023/07/28 02:54:16;;;;;;;3.42;2.05;;;18.70;93.30;;;;;;4947210;28;20047;-73
2023/07/28 02:56:41;;;;;;;3.80;1.90;;;18.70;93.20;;;;;;4966397;28;20039;-74
2023/07/28 02:59:07;;;;;;;2.90;1.90;;;18.60;93.20;;;;;;4971709;28;20085;-73
2023/07/28 03:01:33;;;;;;;4.57;2.03;;;18.60;93.20;;;;;;4966988;28;20030;-74
2023/07/28 03:04:02;;;;;;;5.78;2.40;;;18.60;93.20;;;;;;4971285;28;20502;-74
2023/07/28 03:06:28;;;;;;;3.17;2.15;;;18.60;93.20;;;;;;4966866;28;20031;-74
2023/07/28 03:08:54;;;;;;;3.97;1.98;;;18.60;93.20;;;;;;4969955;28;20046;-75
2023/07/28 03:11:19;;;;;;;3.70;2.17;;;18.60;93.20;;;;;;4964715;28;20139;-74
2023/07/28 03:13:45;;;;;;;4.18;2.50;;;18.60;93.20;;;;;;4949040;28;20461;-74
2023/07/28 03:16:11;;;;;;;4.25;2.50;;;18.70;93.30;;;;;;4954391;28;20480;-74
2023/07/28 03:18:37;;;;;;;4.32;2.67;;;18.70;93.20;;;;;;4954416;28;20050;-73
2023/07/28 03:21:02;;;;;;;5.40;3.30;;;18.60;93.20;;;;;;4959593;28;20046;-74
2023/07/28 03:23:28;;;;;;;7.95;4.28;;;18.70;93.20;;;;;;4951056;28;20835;-73
2023/07/28 03:25:54;;;;;;;7.20;4.20;;;18.70;93.20;;;;;;4949111;28;20047;-73
2023/07/28 03:28:19;;;;;;;6.38;4.55;;;18.60;93.20;;;;;;4949468;28;20440;-73
2023/07/28 03:30:45;;;;;;;8.30;3.95;;;18.70;93.30;;;;;;4953409;28;20071;-72
2023/07/28 03:33:11;;;;;;;9.38;4.53;;;18.70;93.30;;;;;;4965028;28;20026;-74
2023/07/28 03:35:37;;;;;;;7.07;4.45;;;18.70;93.30;;;;;;4964925;28;20578;-73
2023/07/28 03:38:02;;;;;;;7.70;4.53;;;18.70;93.30;;;;;;4966035;28;20499;-74
2023/07/28 03:40:28;;;;;;;7.35;4.68;;;18.70;93.30;;;;;;4965375;28;20549;-72
2023/07/28 03:42:54;;;;;;;7.10;5.35;;;18.70;93.30;;;;;;4960527;28;20523;-72
2023/07/28 03:45:19;;;;;;;10.38;5.63;;;18.60;93.30;;;;;;4966330;28;20039;-72
2023/07/28 03:47:45;;;;;;;7.30;5.07;;;18.70;93.30;;;;;;4965647;28;20075;-73
2023/07/28 03:50:11;;;;;;;7.70;4.88;;;18.60;93.30;;;;;;4966806;28;20035;-73
2023/07/28 03:52:37;;;;;;;9.93;4.97;;;18.60;93.30;;;;;;4968203;28;20027;-74
2023/07/28 03:55:03;;;;;;;6.43;4.47;;;18.70;93.30;;;;;;4966417;28;20502;-73
2023/07/28 03:57:29;;;;;;;8.73;4.63;;;18.70;93.30;;;;;;4966074;28;20312;-73
2023/07/28 03:59:54;;;;;;;7.60;4.53;;;18.70;93.30;;;;;;4966509;28;20109;-74
2023/07/28 04:02:20;;;;;;;6.45;4.22;;;18.70;93.30;;;;;;4966048;28;20038;-73
2023/07/28 04:04:46;;;;;;;6.85;4.40;;;18.70;93.30;;;;;;4965223;28;20023;-73
2023/07/28 04:07:11;;;;;;;9.45;4.90;;;18.60;93.30;;;;;;4964092;28;20054;-73
2023/07/28 04:09:37;;;;;;;6.22;4.13;;;18.70;93.30;;;;;;4967287;28;20521;-72
2023/07/28 04:12:03;;;;;;;6.93;5.05;;;18.70;93.40;;;;;;4965780;28;20035;-78
2023/07/28 04:14:29;;;;;;;6.45;4.22;;;18.60;93.30;;;;;;4960190;28;20066;-74
2023/07/28 04:16:54;;;;;;;9.90;5.10;;;18.70;93.30;;;;;;4967516;28;20407;-74
2023/07/28 04:19:20;;;;;;;7.18;4.35;;;18.70;93.40;;;;;;4971399;28;20030;-75
2023/07/28 04:21:46;;;;;;;8.68;4.30;;;18.70;93.40;;;;;;4972412;28;20477;-73
2023/07/28 04:24:11;;;;;;;6.72;4.45;;;18.70;93.40;;;;;;4970045;28;20058;-74
2023/07/28 04:26:37;;;;;;;6.60;4.38;;;18.70;93.40;;;;;;4963156;28;20088;-74
2023/07/28 04:29:03;;;;;;;7.03;5.05;;;18.70;93.40;;;;;;4967048;28;20097;-73
2023/07/28 04:31:29;;;;;;;9.07;5.00;;;18.60;93.40;;;;;;4965378;28;20474;-74
2023/07/28 04:33:55;;;;;;;9.98;5.40;;;18.70;93.50;;;;;;4966114;28;20147;-72
2023/07/28 04:36:20;;;;;;;8.20;4.53;;;18.70;93.50;;;;;;4967510;28;20042;-74
2023/07/28 04:38:46;;;;;;;7.32;4.80;;;18.70;93.50;;;;;;4967050;28;20034;-72
2023/07/28 04:41:11;;;;;;;7.22;4.90;;;18.70;93.50;;;;;;4970108;28;20047;-71
2023/07/28 04:43:37;;;;;;;7.03;4.63;;;18.70;93.50;;;;;;4962820;28;20389;-73
2023/07/28 04:46:03;;;;;;;7.68;4.50;;;18.70;93.40;;;;;;4964393;28;20070;-73
2023/07/28 04:48:28;;;;;;;6.97;4.60;;;18.70;93.50;;;;;;4965559;28;20022;-72
2023/07/28 04:50:54;;;;;;;8.75;5.57;;;18.70;93.60;;;;;;4965968;28;20369;-74
2023/07/28 04:53:20;;;;;;;8.18;4.55;;;18.70;93.50;;;;;;4946147;28;20134;-74
2023/07/28 04:55:46;;;;;;;8.93;4.50;;;18.70;93.50;;;;;;4954432;28;20056;-73
2023/07/28 04:58:11;;;;;;;9.55;4.28;;;18.70;93.40;;;;;;4966758;28;20439;-73
2023/07/28 05:00:37;;;;;;;8.95;5.07;;;18.70;93.30;;;;;;4965141;28;20147;-74
2023/07/28 05:03:03;;;;;;;6.57;4.13;;;18.70;93.40;;;;;;4966806;28;20034;-75
2023/07/28 05:05:29;;;;;;;10.30;4.78;;;18.80;93.50;;;;;;4962282;28;20103;-74
2023/07/28 05:07:55;;;;;;;7.22;4.32;;;18.70;93.40;;;;;;4964204;28;20507;-74
2023/07/28 05:10:21;;;;;;;8.02;5.32;;;18.80;93.40;;;;;;4966704;28;20066;-74
2023/07/28 05:12:46;;;;;;;6.70;4.30;;;18.80;93.40;;;;;;4961531;28;20054;-74
2023/07/28 05:15:14;;;;;;;6.40;4.18;;;18.80;93.30;;;;;;4965574;28;20435;-74
2023/07/28 05:17:40;;;;;;;6.22;3.97;;;18.80;93.30;;;;;;4966097;28;20086;-74
2023/07/28 05:20:06;;;;;;;9.70;4.60;;;18.80;93.20;;;;;;4965423;28;20023;-74
2023/07/28 05:22:32;;;;;;;10.35;4.68;;;18.80;93.30;;;;;;4965993;28;20050;-73
2023/07/28 05:24:57;;;;;;;6.68;4.05;;;18.80;93.20;;;;;;4965946;28;20035;-75
2023/07/28 05:27:23;;;;;;;6.72;3.88;;;18.80;93.20;;;;;;4965877;28;20603;-73
2023/07/28 05:29:49;;;;;;;6.65;4.57;;;18.90;93.30;;;;;;4964193;28;20030;-74
2023/07/28 05:32:14;;;;;;;8.15;4.40;;;18.90;93.20;;;;;;4962244;28;20039;-74
2023/07/28 05:34:43;;;;;;;8.75;4.47;;;19.00;92.90;;;;;;4966709;28;20089;-74
2023/07/28 05:37:09;;;;;;;6.70;3.80;;;18.90;92.90;;;;;;4962714;28;20129;-76
2023/07/28 05:39:35;;;;;;;7.28;3.83;;;18.90;92.80;;;;;;4962297;28;20035;-74
2023/07/28 05:42:01;;;;;;;7.80;3.63;;;18.80;92.70;;;;;;4952202;28;20070;-75
2023/07/28 05:44:26;;;;;;;6.35;3.72;;;18.90;92.70;;;;;;4958132;28;20019;-73
2023/07/28 05:46:52;;;;;;;6.93;3.65;;;18.90;92.70;;;;;;4950150;28;20039;-73
2023/07/28 05:49:18;;;;;;;10.88;3.78;;;18.90;92.40;;;;;;4950475;28;20019;-74
2023/07/28 05:51:44;;;;;;;5.63;3.25;;;19.00;92.50;;;;;;4959833;28;20491;-73
2023/07/28 05:54:09;;;;;;;5.90;3.42;;;19.00;92.50;;;;;;4965343;28;20077;-75
2023/07/28 05:56:35;;;;;;;7.10;3.80;;;19.00;92.60;;;;;;4963895;28;20057;-74
2023/07/28 05:59:00;;;;;;;8.98;4.13;;;19.00;92.50;;;;;;4962326;28;20026;-75
2023/07/28 06:01:27;;;;;;;8.05;4.20;;;19.00;92.60;;;;;;4963051;28;20039;-74
2023/07/28 06:03:55;;;;;;;7.57;4.15;;;19.00;92.60;;;;;;4964182;28;20023;-74
2023/07/28 06:06:21;;;;;;;9.18;3.88;;;19.00;92.50;;;;;;4961774;28;20054;-74
2023/07/28 06:08:47;;;;;;;9.73;3.92;;;19.00;92.50;;;;;;4965347;28;20121;-75
2023/07/28 06:11:13;;;;;;;8.85;4.15;;;18.90;92.20;;;;;;4962163;28;20166;-74
2023/07/28 06:13:38;;;;;;;7.47;4.15;;;18.90;92.20;;;;;;4955646;28;20027;-73
2023/07/28 06:16:04;;;;;;;8.02;3.90;;;19.00;92.10;;;;;;4953843;28;20286;-74
2023/07/28 06:18:30;;;;;;;7.75;3.78;;;19.00;92.20;;;;;;4949678;28;20048;-73
2023/07/28 06:20:55;;;;;;;9.77;4.13;;;19.00;92.10;;;;;;4964356;28;20034;-77
2023/07/28 06:23:21;;;;;;;10.80;5.03;;;19.00;91.90;;;;;;4964890;28;20034;-74
2023/07/28 06:25:46;;;;;;;9.05;4.20;;;19.10;91.80;;;;;;4964207;28;20081;-73
2023/07/28 06:28:13;;;;;;;8.70;4.78;;;19.10;91.90;;;;;;4969414;28;20042;-75
2023/07/28 06:30:39;;;;;;;11.73;4.47;;;19.10;91.70;;;;;;4964523;28;20069;-75
2023/07/28 06:33:08;;;;;;;7.40;4.25;;;19.20;91.60;;;;;;4970954;28;20026;-73
2023/07/28 06:35:34;;;;;;;10.15;4.40;;;19.30;91.60;;;;;;4962757;28;20480;-74
2023/07/28 06:38:01;;;;;;;9.05;4.47;;;19.30;91.40;;;;;;4965756;28;20054;-73
2023/07/28 06:40:26;;;;;;;9.95;4.68;;;19.30;91.10;;;;;;4966871;28;20581;-74
2023/07/28 06:42:52;;;;;;;9.25;4.57;;;19.40;90.80;;;;;;4966069;28;20126;-74
2023/07/28 06:45:18;;;;;;;11.80;5.50;;;19.40;90.40;;;;;;4963459;28;20065;-74
2023/07/28 06:47:43;;;;;;;9.43;5.15;;;19.30;90.30;;;;;;4967969;28;20053;-76
2023/07/28 06:50:11;;;;;;;9.90;5.78;;;19.40;90.10;;;;;;4964923;28;20556;-78
2023/07/28 06:52:36;;;;;;;9.60;6.25;;;19.40;90.10;;;;;;4966194;28;20027;-73
2023/07/28 06:55:03;;;;;;;12.63;6.05;;;19.40;90.10;;;;;;4978756;28;20875;-73
2023/07/28 06:57:30;;;;;;;11.20;5.70;;;19.50;89.80;;;;;;4966770;28;20039;-79
2023/07/28 06:59:56;;;;;;;12.48;5.88;;;19.50;89.40;;;;;;4970177;28;20487;-80
2023/07/28 07:02:22;;;;;;;9.43;5.32;;;19.60;89.80;;;;;;4947568;28;20035;-79
2023/07/28 07:04:47;;;;;;;11.32;5.57;;;19.70;89.50;;;;;;4950613;28;20111;-81
2023/07/28 07:07:13;;;;;;;10.48;6.38;;;19.90;89.20;;;;;;4946573;28;20047;-81
2023/07/28 07:09:40;;;;;;;10.43;6.13;;;20.00;88.90;;;;;;4948555;28;20066;-80
2023/07/28 07:12:07;;;;;;;9.30;6.25;;;20.00;88.50;;;;;;4945165;28;20036;-79
2023/07/28 07:14:33;;;;;;;13.95;6.38;;;20.10;88.20;;;;;;4945718;29;20031;-79
2023/07/28 07:16:59;;;;;;;9.68;5.88;;;20.10;87.70;;;;;;4948591;28;20051;-79
2023/07/28 07:19:24;;;;;;;9.57;5.50;;;20.50;87.80;;;;;;4947735;28;20038;-80
2023/07/28 07:21:50;;;;;;;8.73;4.97;;;20.70;86.10;;;;;;4947572;29;20066;-80
2023/07/28 07:24:16;;;;;;;9.10;4.93;;;20.80;86.10;;;;;;4948008;28;20028;-78
2023/07/28 07:26:42;;;;;;;7.88;4.80;;;20.80;84.50;;;;;;4949872;28;20039;-79
2023/07/28 07:29:11;;;;;;;8.55;4.85;;;21.10;84.60;;;;;;4948618;28;20476;-78
2023/07/28 07:31:37;;;;;;;9.50;5.07;;;21.00;84.10;;;;;;4944709;28;20118;-79
2023/07/28 07:34:04;;;;;;;9.15;5.03;;;21.00;83.70;;;;;;4962239;28;20147;-79
2023/07/28 07:36:29;;;;;;;9.93;5.63;;;21.10;83.50;;;;;;4948743;28;20094;-79
2023/07/28 07:38:55;;;;;;;10.90;5.28;;;21.10;83.40;;;;;;4950911;28;20447;-78
2023/07/28 07:41:22;;;;;;;9.10;5.05;;;21.10;83.10;;;;;;4958454;28;20058;-76
2023/07/28 07:43:49;;;;;;;7.78;4.43;;;20.80;82.70;;;;;;4969759;28;20023;-76
2023/07/28 07:46:16;;;;;;;9.43;5.30;;;20.80;83.30;;;;;;4995938;28;20651;-77
2023/07/28 07:48:42;;;;;;;9.95;5.30;;;20.60;83.40;;;;;;4972776;28;20053;-76
2023/07/28 07:51:08;;;;;;;9.02;4.85;;;20.70;83.90;;;;;;4958921;28;20035;-76
2023/07/28 07:53:36;;;;;;;7.90;4.85;;;20.80;83.70;;;;;;4965773;28;20031;-77
2023/07/28 07:56:05;;;;;;;10.18;5.80;;;20.90;83.70;;;;;;4964727;28;20372;-76
2023/07/28 07:58:31;;;;;;;8.73;5.47;;;20.90;82.90;;;;;;4965056;28;20050;-76
2023/07/28 08:00:57;;;;;;;7.60;4.60;;;20.70;83.00;;;;;;4965081;28;20134;-76
2023/07/28 08:03:23;;;;;;;8.18;4.60;;;20.60;83.20;;;;;;4963978;28;20507;-77
2023/07/28 08:05:50;;;;;;;8.60;4.50;;;20.60;83.10;;;;;;4962611;28;20046;-78
2023/07/28 08:08:17;;;;;;;8.98;4.72;;;20.50;83.30;;;;;;4962946;28;20047;-78
2023/07/28 08:10:43;;;;;;;8.27;4.53;;;20.50;83.40;;;;;;4931595;28;20095;-77
2023/07/28 08:13:10;;;;;;;9.05;4.63;;;20.50;83.30;;;;;;4935704;28;20573;-77
2023/07/28 08:15:36;;;;;;;8.50;5.03;;;20.40;83.50;;;;;;4938950;28;20054;-76
2023/07/28 08:18:02;;;;;;;8.52;4.57;;;20.30;83.80;;;;;;4940221;29;20500;-77
2023/07/28 08:20:28;;;;;;;8.05;4.80;;;20.40;84.10;;;;;;4937855;28;20058;-76
2023/07/28 08:22:53;;;;;;;10.25;5.63;;;20.40;84.50;;;;;;4939081;28;20038;-75
2023/07/28 08:25:19;;;;;;;7.85;5.03;;;20.30;84.20;;;;;;4936607;28;20039;-76
2023/07/28 08:27:45;;;;;;;9.05;4.45;;;20.40;84.40;;;;;;4936497;28;20031;-75
2023/07/28 08:30:11;;;;;;;9.95;5.13;;;20.50;84.60;;;;;;4934286;28;20042;-76
2023/07/28 08:32:37;;;;;;;8.70;4.53;;;20.50;84.60;;;;;;4936770;28;20110;-78
2023/07/28 08:35:03;;;;;;;8.60;4.68;;;20.60;84.00;;;;;;4943913;28;20520;-76
2023/07/28 08:37:29;;;;;;;9.10;4.97;;;20.80;83.80;;;;;;4943381;29;20923;-75
2023/07/28 08:39:55;;;;;;;8.73;5.03;;;21.00;83.50;;;;;;4944060;28;20532;-78
2023/07/28 08:42:22;;;;;;;8.35;4.32;;;21.00;83.00;;;;;;4945029;28;20140;-78
2023/07/28 08:44:51;;;;;;;5.80;3.75;;;21.00;82.30;;;;;;4942409;28;20030;-74
2023/07/28 08:47:17;;;;;;;6.63;3.63;;;20.90;82.60;;;;;;4945643;28;20105;-75
2023/07/28 08:49:43;;;;;;;8.95;4.05;;;21.00;82.80;;;;;;4947641;28;20027;-79
2023/07/28 08:52:09;;;;;;;7.32;4.25;;;20.90;82.30;;;;;;4946399;28;20043;-77
2023/07/28 08:54:35;;;;;;;8.25;3.75;;;20.70;81.90;;;;;;4947138;28;20046;-75
2023/07/28 08:57:01;;;;;;;7.28;4.10;;;20.60;81.90;;;;;;4961930;28;20047;-74
2023/07/28 08:59:28;;;;;;;7.38;3.88;;;20.70;82.00;;;;;;4966041;28;20058;-74
2023/07/28 09:01:57;;;;;;;10.80;5.22;;;20.70;82.10;;;;;;4963854;28;20322;-73
2023/07/28 09:04:24;;;;;;;6.88;4.53;;;20.80;81.80;;;;;;4967719;28;20756;-73
2023/07/28 09:06:50;;;;;;;8.55;4.78;;;20.90;82.10;;;;;;4969182;28;20043;-73
2023/07/28 09:09:17;;;;;;;8.90;4.38;;;20.90;81.50;;;;;;4968357;28;20118;-74
2023/07/28 09:11:54;;;;;;;9.60;4.55;;;21.10;81.40;;;;;;4950261;28;20035;-74
2023/07/28 09:14:21;;;;;;;7.93;4.28;;;21.10;81.80;;;;;;4946593;28;20020;-73
2023/07/28 09:16:47;;;;;;;7.15;3.70;;;21.10;81.20;;;;;;4958564;28;20046;-75
2023/07/28 09:19:13;;;;;;;7.50;3.80;;;21.10;81.20;;;;;;4964825;28;20035;-74
2023/07/28 09:21:43;;;;;;;6.38;3.30;;;21.10;81.30;;;;;;4965486;28;20030;-74
2023/07/28 09:24:11;;;;;;;5.28;2.85;;;21.10;81.20;;;;;;4966485;28;20113;-75
2023/07/28 09:26:41;;;;;;;5.72;3.10;;;21.10;82.00;;;;;;4964166;28;20046;-74
2023/07/28 09:29:20;;;;;;;7.25;3.03;;;21.40;81.20;;;;;;4965334;28;20022;-74
2023/07/28 09:31:48;;;;;;;6.00;3.20;;;21.80;81.00;;;;;;4950605;28;20499;-74
2023/07/28 09:34:27;;;;;;;5.63;2.70;;;22.10;79.60;;;;;;4945140;28;20719;-74
2023/07/28 09:36:58;;;;;;;8.57;3.00;;;22.10;78.40;;;;;;4947030;28;20043;-74
2023/07/28 09:39:24;;;;;;;6.57;2.90;;;22.30;78.20;;;;;;4941607;29;20069;-73
2023/07/28 09:41:49;;;;;;;2.95;1.80;;;22.40;78.20;;;;;;4943456;28;20499;-74
2023/07/28 09:44:16;;;;;;;2.28;1.35;;;22.60;76.00;;;;;;4946393;29;20023;-74
2023/07/28 09:46:56;;;;;;;3.03;1.55;;;22.80;76.30;;;;;;4943381;28;20063;-74
2023/07/28 09:49:29;;;;;;;3.75;1.70;;;23.00;75.40;;;;;;4945667;28;20023;-74
2023/07/28 09:51:57;;;;;;;2.58;1.70;;;23.00;75.10;;;;;;4945018;28;20050;-74
2023/07/28 09:54:27;;;;;;;5.28;1.45;;;23.00;73.70;;;;;;4946622;28;20023;-73
2023/07/28 09:56:58;;;;;;;4.13;1.40;;;22.90;75.00;;;;;;4944479;28;20058;-73
2023/07/28 09:59:35;;;;;;;4.10;1.67;;;23.00;73.20;;;;;;4943961;28;20535;-75
2023/07/28 10:02:01;;;;;;;5.20;1.88;;;22.90;73.50;;;;;;4944389;28;20074;-73
2023/07/28 10:04:27;;;;;;;3.88;1.92;;;22.80;73.90;;;;;;4944418;28;20110;-73
2023/07/28 10:06:56;;;;;;;3.38;1.63;;;22.80;74.70;;;;;;4945909;28;20740;-73
2023/07/28 10:09:25;;;;;;;3.63;1.90;;;22.70;73.70;;;;;;4945311;28;20023;-72
2023/07/28 10:11:51;;;;;;;4.28;1.90;;;22.60;74.20;;;;;;4943767;28;20103;-73
2023/07/28 10:14:37;;;;;;;3.90;2.35;;;22.50;75.10;;;;;;4945717;28;20476;-75
2023/07/28 10:17:04;;;;;;;4.72;2.28;;;22.50;76.10;;;;;;4942902;28;20062;-72
2023/07/28 10:19:34;;;;;;;4.53;2.20;;;22.60;75.20;;;;;;4969871;28;20437;-73
2023/07/28 10:22:07;;;;;;;4.47;2.33;;;22.80;74.30;;;;;;4945507;28;20041;-73
2023/07/28 10:24:56;;;;;;;4.13;1.95;;;23.00;74.40;;;;;;4944024;28;20039;-73
2023/07/28 10:27:34;;;;;;;4.97;2.05;;;23.10;74.30;;;;;;4984416;28;20061;-74
2023/07/28 10:30:04;;;;;;;3.92;1.85;;;23.20;73.60;;;;;;4968576;28;20030;-75
2023/07/28 10:32:38;;;;;;;3.47;1.90;;;23.00;73.80;;;;;;4967811;28;20114;-74
2023/07/28 10:35:13;;;;;;;4.22;1.73;;;22.60;74.50;;;;;;4968682;28;20045;-73
2023/07/28 10:37:48;;;;;;;4.97;2.10;;;22.30;75.00;;;;;;4967317;28;20034;-73
2023/07/28 10:40:35;;;;;;;6.10;2.30;;;22.10;76.10;;;;;;4964806;28;20101;-74
2023/07/28 10:43:03;;;;;;;2.97;1.85;;;21.80;76.90;;;;;;4965957;28;20070;-74
2023/07/28 10:45:30;;;;;;;4.60;2.13;;;21.80;77.60;;;;;;4967939;28;20082;-74
2023/07/28 10:47:59;;;;;;;5.60;2.35;;;21.70;77.40;;;;;;4963157;28;20364;-74
2023/07/28 10:50:28;;;;;;;5.45;2.70;;;21.70;77.60;;;;;;4967900;28;20039;-73
2023/07/28 10:52:53;;;;;;;4.78;2.65;;;21.60;78.20;;;;;;4964664;28;20022;-74
2023/07/28 10:55:25;;;;;;;6.50;2.67;;;21.50;78.70;;;;;;4963097;28;20471;-74
2023/07/28 10:57:53;;;;;;;5.07;2.28;;;21.60;78.70;;;;;;4966338;28;20121;-73
2023/07/28 11:00:21;;;;;;;4.22;2.45;;;21.80;78.70;;;;;;4967731;28;20058;-73
2023/07/28 11:02:49;;;;;;;4.38;2.63;;;22.10;77.00;;;;;;4964539;28;20030;-74
2023/07/28 11:05:23;;;;;;;5.15;2.53;;;22.40;76.30;;;;;;4963755;28;20045;-74
2023/07/28 11:07:55;;;;;;;7.05;2.42;;;22.70;75.70;;;;;;4965028;28;20042;-75
2023/07/28 11:10:21;;;;;;;4.90;2.45;;;22.90;74.70;;;;;;4961289;28;20030;-73
2023/07/28 11:12:50;;;;;;;6.30;2.53;;;22.90;73.50;;;;;;4963167;28;20175;-73
2023/07/28 11:15:17;;;;;;;7.65;2.40;;;23.00;74.00;;;;;;4964556;28;20038;-74
2023/07/28 11:17:48;;;;;;;4.05;1.85;;;22.80;73.70;;;;;;4962874;28;20638;-73
2023/07/28 11:20:18;;;;;;;3.97;2.00;;;22.60;73.70;;;;;;4963614;28;20066;-74
2023/07/28 11:22:45;;;;;;;4.07;1.95;;;22.40;75.10;;;;;;4965463;28;20097;-74
2023/07/28 11:25:11;;;;;;;5.43;2.40;;;22.10;76.40;;;;;;4964097;28;20133;-75
2023/07/28 11:27:38;;;;;;;4.45;2.20;;;22.00;77.20;;;;;;4966829;28;20097;-74
2023/07/28 11:30:05;;;;;;;7.25;2.78;;;21.80;79.10;;;;;;4962535;28;20322;-76
2023/07/28 11:32:37;;;;;;;3.67;2.00;;;21.80;79.20;;;;;;4965051;28;20034;-76
2023/07/28 11:35:10;;;;;;;5.75;2.20;;;21.70;79.20;;;;;;4960044;28;20656;-74
2023/07/28 11:37:37;;;;;;;5.32;2.35;;;21.70;80.00;;;;;;4947994;28;20094;-75
2023/07/28 11:40:08;;;;;;;6.47;2.17;;;21.80;79.90;;;;;;4953346;28;20057;-75
2023/07/28 11:42:57;;;;;;;6.35;2.05;;;21.90;78.90;;;;;;4942454;28;20424;-74
2023/07/28 11:45:23;;;;;;;6.18;1.90;;;22.00;78.10;;;;;;4942366;28;20039;-76
2023/07/28 11:48:04;;;;;;;4.00;1.88;;;22.10;77.90;;;;;;4943135;28;20039;-76
2023/07/28 11:50:38;;;;;;;3.92;2.20;;;22.30;78.20;;;;;;4945748;28;20035;-77
2023/07/28 11:53:05;;;;;;;4.78;2.00;;;22.60;76.80;;;;;;4945504;28;20142;-78
2023/07/28 11:55:32;;;;;;;6.75;2.85;;;22.80;76.90;;;;;;4947840;28;20082;-77
2023/07/28 11:58:01;;;;;;;3.42;1.88;;;23.20;75.20;;;;;;4948674;29;20090;-77
2023/07/28 12:00:42;;;;;;;2.80;1.60;;;23.50;74.10;;;;;;4945841;28;20043;-77
2023/07/28 12:03:12;;;;;;;4.20;1.48;;;23.80;72.50;;;;;;4948003;28;20051;-76
2023/07/28 12:05:58;;;;;;;5.20;1.95;;;24.10;71.90;;;;;;4941382;28;20119;-76
2023/07/28 12:08:37;;;;;;;3.92;1.73;;;24.30;70.80;;;;;;4946987;28;20061;-76
2023/07/28 12:11:03;;;;;;;4.57;1.83;;;24.30;69.40;;;;;;4951397;28;20069;-79
2023/07/28 12:13:29;;;;;;;5.15;1.77;;;24.50;70.10;;;;;;4950720;29;20031;-75
2023/07/28 12:15:54;;;;;;;4.05;1.58;;;24.50;69.50;;;;;;4949616;28;20031;-74
2023/07/28 12:18:22;;;;;;;4.05;1.67;;;24.40;69.00;;;;;;4948312;29;20035;-76
2023/07/28 12:20:49;;;;;;;4.15;1.83;;;24.50;68.60;;;;;;4956208;28;20067;-77
2023/07/28 12:23:20;;;;;;;4.55;1.67;;;24.40;68.90;;;;;;4975277;28;20029;-75
2023/07/28 12:25:46;;;;;;;5.10;1.58;;;24.30;68.70;;;;;;4961882;28;20181;-77
2023/07/28 12:28:12;;;;;;;6.07;2.08;;;24.30;68.80;;;;;;4947588;28;20039;-77
2023/07/28 12:30:38;;;;;;;5.32;1.80;;;24.10;68.40;;;;;;4948024;28;20057;-74
2023/07/28 12:33:04;;;;;;;4.65;1.90;;;23.90;69.90;;;;;;4962669;28;20531;-76
2023/07/28 12:35:33;;;;;;;6.00;2.08;;;23.70;70.20;;;;;;4959389;28;20043;-78
2023/07/28 12:38:04;;;;;;;3.30;1.75;;;23.50;70.80;;;;;;4974401;28;20043;-76
2023/07/28 12:40:30;;;;;;;3.42;1.60;;;23.40;71.40;;;;;;4962509;28;20034;-80
2023/07/28 12:42:57;;;;;;;3.33;1.90;;;23.20;72.10;;;;;;4947051;28;20037;-77
2023/07/28 12:45:25;;;;;;;3.63;1.88;;;23.10;72.80;;;;;;4944994;28;20707;-75
2023/07/28 12:47:54;;;;;;;5.38;2.00;;;23.20;72.10;;;;;;4946748;28;20038;-75